createdAt,value
2023-11-30T05:24:35.663Z,0.24
2023-11-30T05:28:39.477Z,0.24
2023-11-30T05:32:42.469Z,-0.29
2023-11-30T05:36:45.536Z,-0.28
2023-11-30T05:40:48.356Z,-0.27
2023-11-30T05:44:51.621Z,-0.15
2023-11-30T05:48:55.453Z,-0.19
2023-11-30T05:52:58.722Z,-0.08
2023-11-30T05:57:02.737Z,-0.15
2023-11-30T06:01:06.064Z,-0.16
2023-11-30T06:05:09.315Z,-0.08
2023-11-30T06:09:12.092Z,-0.08
2023-11-30T06:13:16.918Z,-0.03
2023-11-30T06:17:20.197Z,0.11
2023-11-30T06:21:23.366Z,0.14
2023-11-30T06:25:26.157Z,0.12
2023-11-30T06:29:30.602Z,0.09
2023-11-30T06:33:33.246Z,0.11
2023-11-30T06:37:36.382Z,0.13
2023-11-30T06:41:39.277Z,0.26
2023-11-30T06:45:42.754Z,0.27
2023-11-30T06:49:46.644Z,0.28
2023-11-30T06:53:49.697Z,0.37
2023-11-30T06:57:52.462Z,0.27
2023-11-30T07:01:55.572Z,0.27
2023-11-30T07:05:59.086Z,0.31
2023-11-30T07:10:02.422Z,0.30
2023-11-30T07:14:05.168Z,0.41
2023-11-30T07:18:10.377Z,0.49
2023-11-30T07:22:13.367Z,0.54
2023-11-30T07:26:16.887Z,0.61
2023-11-30T07:30:19.728Z,0.56
2023-11-30T07:34:22.873Z,0.67
2023-11-30T07:38:25.703Z,0.42
2023-11-30T07:42:35.115Z,0.65
2023-11-30T07:46:40.161Z,0.19
2023-11-30T07:50:43.186Z,0.39
2023-11-30T07:54:45.937Z,0.28
2023-11-30T07:58:50.069Z,0.34
2023-11-30T08:02:54.063Z,0.36
2023-11-30T08:06:57.754Z,0.42
2023-11-30T08:11:02.482Z,0.38
2023-11-30T08:15:08.385Z,0.40
2023-11-30T08:19:11.833Z,0.14
2023-11-30T08:23:15.719Z,0.17
2023-11-30T08:27:20.029Z,0.21
2023-11-30T08:31:23.835Z,0.18
2023-11-30T08:35:28.635Z,0.12
2023-11-30T08:39:32.920Z,0.13
2023-11-30T08:43:35.915Z,0.27
2023-11-30T08:47:44.207Z,0.19
2023-11-30T08:51:47.323Z,0.14
2023-11-30T08:55:50.700Z,0.12
2023-11-30T08:59:53.633Z,0.18
2023-11-30T09:04:06.601Z,0.31
2023-11-30T09:08:09.533Z,0.28
2023-11-30T09:12:13.092Z,0.54
2023-11-30T09:16:15.984Z,0.71
2023-11-30T09:20:21.434Z,0.97
2023-11-30T09:24:24.619Z,0.84
2023-11-30T09:28:28.010Z,1.05
2023-11-30T09:32:30.964Z,1.22
2023-11-30T09:36:34.636Z,1.24
2023-11-30T09:40:37.674Z,1.28
2023-11-30T09:44:41.080Z,1.42
2023-11-30T09:48:44.437Z,1.42
2023-11-30T09:52:47.967Z,1.39
2023-11-30T09:56:50.785Z,1.26
2023-11-30T10:00:53.873Z,1.24
2023-11-30T10:04:58.582Z,1.12
2023-11-30T10:09:03.354Z,1.52
2023-11-30T10:13:07.172Z,1.24
2023-11-30T10:17:10.283Z,1.21
2023-11-30T10:21:13.964Z,1.18
2023-11-30T10:25:18.663Z,1.41
2023-11-30T10:29:28.319Z,1.20
2023-11-30T10:33:35.992Z,1.17
2023-11-30T10:37:45.282Z,0.86
2023-11-30T10:41:54.256Z,0.80
2023-11-30T10:45:59.716Z,0.77
2023-11-30T10:50:02.647Z,1.02
2023-11-30T10:54:12.113Z,1.18
2023-11-30T10:58:21.025Z,1.14
2023-11-30T11:02:24.145Z,1.18
2023-11-30T11:06:27.952Z,1.10
2023-11-30T11:10:40.512Z,1.14
2023-11-30T11:14:43.304Z,1.05
2023-11-30T11:18:46.520Z,1.47
2023-11-30T11:22:50.939Z,1.25
2023-11-30T11:27:00.923Z,1.32
2023-11-30T11:31:04.603Z,1.29
2023-11-30T11:35:08.609Z,1.49
2023-11-30T11:39:20.535Z,1.63
2023-11-30T11:43:24.196Z,1.47
2023-11-30T11:47:33.712Z,1.35
2023-11-30T11:51:46.953Z,1.61
2023-11-30T11:55:49.844Z,1.42
2023-11-30T11:59:53.957Z,1.79
2023-11-30T12:03:56.897Z,2.07
2023-11-30T12:08:01.620Z,2.07
2023-11-30T12:12:11.220Z,2.60
2023-11-30T12:16:14.648Z,2.41
2023-11-30T12:20:20.176Z,2.35
2023-11-30T12:24:23.891Z,2.24
2023-11-30T12:28:35.093Z,1.76
2023-11-30T12:32:41.804Z,1.57
2023-11-30T12:36:50.160Z,1.45
2023-11-30T12:40:54.702Z,1.60
2023-11-30T12:44:57.458Z,1.43
2023-11-30T12:49:00.930Z,1.28
2023-11-30T12:53:03.801Z,1.42
2023-11-30T12:57:07.153Z,1.28
2023-11-30T13:01:09.860Z,1.04
2023-11-30T13:05:14.424Z,1.05
2023-11-30T13:09:17.284Z,1.13
2023-11-30T13:13:26.211Z,1.15
2023-11-30T13:17:35.375Z,0.93
2023-11-30T13:21:39.470Z,0.86
2023-11-30T13:25:42.922Z,0.97
2023-11-30T13:29:47.161Z,0.92
2023-11-30T13:33:52.639Z,1.03
2023-11-30T13:37:59.412Z,1.02
2023-11-30T13:42:02.973Z,1.06
2023-11-30T13:46:07.360Z,0.83
2023-11-30T13:50:20.523Z,0.97
2023-11-30T13:54:33.489Z,0.78
2023-11-30T13:58:36.473Z,0.96
2023-11-30T14:02:40.937Z,0.95
2023-11-30T14:06:45.446Z,0.99
2023-11-30T14:10:48.505Z,0.93
2023-11-30T14:14:52.841Z,1.00
2023-11-30T14:18:56.114Z,0.97
2023-11-30T14:22:59.821Z,0.98
2023-11-30T14:27:04.520Z,0.92
2023-11-30T14:31:08.834Z,0.92
2023-11-30T14:35:13.289Z,1.03
2023-11-30T14:39:16.419Z,1.12
2023-11-30T14:43:19.194Z,1.03
2023-11-30T14:47:37.508Z,1.00
2023-11-30T14:51:40.370Z,0.95
2023-11-30T14:55:43.451Z,0.94
2023-11-30T14:59:48.126Z,0.97
2023-11-30T15:03:51.277Z,0.92
2023-11-30T15:07:54.316Z,0.78
2023-11-30T15:11:57.700Z,0.91
2023-11-30T15:16:00.783Z,1.07
2023-11-30T15:20:05.159Z,0.88
2023-11-30T15:24:08.180Z,1.02
2023-11-30T15:28:12.929Z,1.14
2023-11-30T15:32:15.615Z,1.00
2023-11-30T15:36:19.658Z,0.89
2023-11-30T15:40:22.741Z,1.15
2023-11-30T15:44:26.187Z,0.93
